createdAt,value
2018-01-21T00:00:29.411Z,3.40
2018-01-21T00:01:29.407Z,3.60
2018-01-21T00:02:29.402Z,3.50
2018-01-21T00:03:29.397Z,3.70
2018-01-21T00:04:29.393Z,3.50
2018-01-21T00:05:29.385Z,4.30
2018-01-21T00:06:29.381Z,3.80
2018-01-21T00:07:29.376Z,4.10
2018-01-21T00:08:29.371Z,3.50
2018-01-21T00:09:29.367Z,3.60
2018-01-21T00:10:29.368Z,3.70
2018-01-21T00:11:29.362Z,3.80
2018-01-21T00:12:29.355Z,4.10
2018-01-21T00:13:29.351Z,3.50
2018-01-21T00:14:29.351Z,4.00
2018-01-21T00:15:29.346Z,3.80
2018-01-21T00:16:29.342Z,3.80
2018-01-21T00:17:29.333Z,4.00
2018-01-21T00:18:29.334Z,4.20
2018-01-21T00:19:29.329Z,4.20
2018-01-21T00:20:29.320Z,4.60
2018-01-21T00:21:29.321Z,4.60
2018-01-21T00:22:29.317Z,4.40
2018-01-21T00:23:29.312Z,5.20
2018-01-21T00:24:29.308Z,4.70
2018-01-21T00:25:29.300Z,4.70
2018-01-21T00:26:29.296Z,4.80
2018-01-21T00:27:29.291Z,4.60
2018-01-21T00:28:29.287Z,4.80
2018-01-21T00:29:29.288Z,5.10
2018-01-21T00:30:29.283Z,4.20
2018-01-21T00:31:29.279Z,5.20
2018-01-21T00:32:29.270Z,4.40
2018-01-21T00:33:29.271Z,4.70
2018-01-21T00:34:29.262Z,4.80
2018-01-21T00:35:29.257Z,4.50
2018-01-21T00:36:29.258Z,5.10
2018-01-21T00:37:29.250Z,5.40
2018-01-21T00:38:29.246Z,5.60
2018-01-21T00:39:29.297Z,5.50
2018-01-21T00:40:29.237Z,4.70
2018-01-21T00:41:29.237Z,5.30
2018-01-21T00:42:29.229Z,6.20
2018-01-21T00:43:29.228Z,5.40
2018-01-21T00:44:29.225Z,5.50
2018-01-21T00:45:29.221Z,5.80
2018-01-21T00:46:29.212Z,5.50
2018-01-21T00:47:29.211Z,5.60
2018-01-21T00:48:29.205Z,5.80
2018-01-21T00:49:29.199Z,5.80
2018-01-21T00:50:29.299Z,5.40
2018-01-21T00:51:29.194Z,5.40
2018-01-21T00:52:29.190Z,6.30
2018-01-21T00:53:29.186Z,6.60
2018-01-21T00:54:29.178Z,6.60
2018-01-21T00:55:29.177Z,6.10
2018-01-21T00:56:29.169Z,6.00
2018-01-21T00:57:29.165Z,6.60
2018-01-21T00:58:29.165Z,5.70
2018-01-21T00:59:29.160Z,6.00
2018-01-21T01:00:29.156Z,6.60
2018-01-21T01:01:29.152Z,6.20
2018-01-21T01:02:29.148Z,6.70
2018-01-21T01:03:29.143Z,6.70
2018-01-21T01:04:29.139Z,6.60
2018-01-21T01:05:29.137Z,6.70
2018-01-21T01:06:29.130Z,7.00
2018-01-21T01:07:29.125Z,6.90
2018-01-21T01:08:29.117Z,6.90
2018-01-21T01:09:29.117Z,7.60
2018-01-21T01:10:29.109Z,7.30
2018-01-21T01:11:29.109Z,7.10
2018-01-21T01:12:29.099Z,7.40
2018-01-21T01:13:29.094Z,7.90
2018-01-21T01:14:29.090Z,8.10
2018-01-21T01:15:29.089Z,9.20
2018-01-21T01:16:29.085Z,9.90
2018-01-21T01:17:29.080Z,9.70
2018-01-21T01:18:29.082Z,10.50
2018-01-21T01:19:29.066Z,9.10
2018-01-21T01:20:29.066Z,10.10
2018-01-21T01:21:29.063Z,10.80
2018-01-21T01:22:29.053Z,9.90
2018-01-21T01:23:29.051Z,10.10
2018-01-21T01:24:29.042Z,10.30
2018-01-21T01:25:29.038Z,10.50
2018-01-21T01:26:29.034Z,10.60
2018-01-21T01:27:29.028Z,9.90
2018-01-21T01:28:29.027Z,10.10
2018-01-21T01:29:29.019Z,10.20
2018-01-21T01:30:29.015Z,10.70
2018-01-21T01:31:29.013Z,10.40
2018-01-21T01:32:29.109Z,10.70
2018-01-21T01:33:29.003Z,9.80
2018-01-21T01:34:28.999Z,10.20
2018-01-21T01:35:28.990Z,10.20
2018-01-21T01:36:28.989Z,11.10
2018-01-21T01:37:28.980Z,11.00
2018-01-21T01:38:29.076Z,10.20
2018-01-21T01:39:28.975Z,11.00
2018-01-21T01:40:28.966Z,11.00
2018-01-21T01:41:28.961Z,9.90
2018-01-21T01:42:28.961Z,10.80
2018-01-21T01:43:28.951Z,10.80
2018-01-21T01:44:28.946Z,10.70
2018-01-21T01:45:28.946Z,10.40
2018-01-21T01:46:28.937Z,10.40
2018-01-21T01:47:28.932Z,10.10
2018-01-21T01:48:28.927Z,10.90
2018-01-21T01:49:28.922Z,9.90
2018-01-21T01:50:28.918Z,10.40
2018-01-21T01:51:28.912Z,10.50
2018-01-21T01:52:28.912Z,10.50
2018-01-21T01:53:28.903Z,10.80
2018-01-21T01:54:28.902Z,10.00
2018-01-21T01:55:28.893Z,9.50
2018-01-21T01:56:28.888Z,9.50
2018-01-21T01:57:28.884Z,9.30
2018-01-21T01:58:28.879Z,8.10
2018-01-21T01:59:28.877Z,8.20
2018-01-21T02:00:28.869Z,8.00
2018-01-21T02:01:28.864Z,8.10
2018-01-21T02:02:28.863Z,7.80
2018-01-21T02:03:28.854Z,6.80
2018-01-21T02:04:28.849Z,6.60
2018-01-21T02:05:28.848Z,6.40
2018-01-21T02:06:28.840Z,6.50
2018-01-21T02:07:28.838Z,5.90
2018-01-21T02:08:28.819Z,6.60
2018-01-21T02:09:28.825Z,6.50
2018-01-21T02:10:28.805Z,6.20
2018-01-21T02:11:28.799Z,6.20
2018-01-21T02:12:28.793Z,6.40
2018-01-21T02:13:28.793Z,6.00
2018-01-21T02:14:28.784Z,6.30
2018-01-21T02:15:28.778Z,6.50
2018-01-21T02:16:28.774Z,6.00
2018-01-21T02:17:28.785Z,5.60
2018-01-21T02:18:28.765Z,6.10
2018-01-21T02:19:28.760Z,5.50
2018-01-21T02:20:28.771Z,6.20
2018-01-21T02:21:28.770Z,6.50
2018-01-21T02:22:28.747Z,6.10
2018-01-21T02:23:28.757Z,6.60
2018-01-21T02:24:28.752Z,6.20
2018-01-21T02:25:28.748Z,6.90
2018-01-21T02:26:28.744Z,6.60
2018-01-21T02:27:28.739Z,6.20
2018-01-21T02:28:28.721Z,6.80
2018-01-21T02:29:28.721Z,6.60
2018-01-21T02:30:28.717Z,6.70
2018-01-21T02:31:28.710Z,6.60
2018-01-21T02:32:28.702Z,6.80
2018-01-21T02:33:28.697Z,6.10
2018-01-21T02:34:28.709Z,6.30
2018-01-21T02:35:28.703Z,6.70
2018-01-21T02:36:28.684Z,6.50
2018-01-21T02:37:28.684Z,6.00
2018-01-21T02:38:28.676Z,6.60
2018-01-21T02:39:28.687Z,6.90
2018-01-21T02:40:28.667Z,6.50
2018-01-21T02:41:28.679Z,6.60
2018-01-21T02:42:28.675Z,13.10
2018-01-21T02:43:28.670Z,6.10
2018-01-21T02:44:28.654Z,6.10
2018-01-21T02:45:28.662Z,5.00
2018-01-21T02:46:28.662Z,6.10
2018-01-21T02:47:28.641Z,5.70
2018-01-21T02:48:28.635Z,6.30
2018-01-21T02:49:28.645Z,5.60
2018-01-21T02:50:28.625Z,5.80
2018-01-21T02:51:28.625Z,5.70
2018-01-21T02:52:28.621Z,5.40
2018-01-21T02:53:28.628Z,5.20
2018-01-21T02:54:28.624Z,6.00
2018-01-21T02:55:28.618Z,5.90
2018-01-21T02:56:28.614Z,5.30
2018-01-21T02:57:28.595Z,5.30
2018-01-21T02:58:28.596Z,5.20
2018-01-21T02:59:28.601Z,5.50
2018-01-21T03:00:28.582Z,5.60
2018-01-21T03:01:28.593Z,5.50
2018-01-21T03:02:28.580Z,5.80
2018-01-21T03:03:28.588Z,5.10
2018-01-21T03:04:28.565Z,6.00
2018-01-21T03:05:28.577Z,6.20
2018-01-21T03:06:28.573Z,5.30
2018-01-21T03:07:28.568Z,5.90
2018-01-21T03:08:28.564Z,5.10
2018-01-21T03:09:28.549Z,6.30
2018-01-21T03:10:28.540Z,5.90
2018-01-21T03:11:28.536Z,5.40
2018-01-21T03:12:28.532Z,5.30
2018-01-21T03:13:28.543Z,5.50
2018-01-21T03:14:28.627Z,5.60
2018-01-21T03:15:28.519Z,5.80
2018-01-21T03:16:28.535Z,6.20
2018-01-21T03:17:28.511Z,5.40
2018-01-21T03:18:28.512Z,5.40
2018-01-21T03:19:28.518Z,6.00
2018-01-21T03:20:28.499Z,5.90
2018-01-21T03:21:28.522Z,4.90
2018-01-21T03:22:28.510Z,5.50
2018-01-21T03:23:28.501Z,5.90
2018-01-21T03:24:28.482Z,6.00
2018-01-21T03:25:28.479Z,5.50
2018-01-21T03:26:28.479Z,5.40
2018-01-21T03:27:28.470Z,5.10
2018-01-21T03:28:28.466Z,5.20
2018-01-21T03:29:28.465Z,5.20
2018-01-21T03:30:28.459Z,5.20
2018-01-21T03:31:28.454Z,5.20
2018-01-21T03:32:28.469Z,5.70
2018-01-21T03:33:28.444Z,5.30
2018-01-21T03:34:28.462Z,5.40
2018-01-21T03:35:28.441Z,5.20
2018-01-21T03:36:28.437Z,5.80
2018-01-21T03:37:28.446Z,5.70
2018-01-21T03:38:28.441Z,6.20
2018-01-21T03:39:28.421Z,5.20
2018-01-21T03:40:28.432Z,5.40
2018-01-21T03:41:28.428Z,5.60
2018-01-21T03:42:28.414Z,5.70
2018-01-21T03:43:28.408Z,5.70
2018-01-21T03:44:28.403Z,5.00
2018-01-21T03:45:28.397Z,5.60
2018-01-21T03:46:28.412Z,5.60
2018-01-21T03:47:28.391Z,5.80
2018-01-21T03:48:28.387Z,5.40
2018-01-21T03:49:28.399Z,5.60
2018-01-21T03:50:28.391Z,6.10
2018-01-21T03:51:28.370Z,5.50
2018-01-21T03:52:28.367Z,5.50
2018-01-21T03:53:28.378Z,5.90
2018-01-21T03:54:28.362Z,6.10
2018-01-21T03:55:28.369Z,5.20
2018-01-21T03:56:28.357Z,5.10
2018-01-21T03:57:28.362Z,5.70
2018-01-21T03:58:28.358Z,5.60
2018-01-21T03:59:28.337Z,5.60
2018-01-21T04:00:28.349Z,5.90
2018-01-21T04:01:28.350Z,6.60
2018-01-21T04:02:28.346Z,5.90
2018-01-21T04:03:28.321Z,5.40
2018-01-21T04:04:28.337Z,6.00
2018-01-21T04:05:28.312Z,6.20
2018-01-21T04:06:28.325Z,6.00
2018-01-21T04:07:28.325Z,6.10
2018-01-21T04:08:28.421Z,6.10
2018-01-21T04:09:28.302Z,5.80
2018-01-21T04:10:28.313Z,6.80
2018-01-21T04:11:28.288Z,7.40
2018-01-21T04:12:28.305Z,6.90
2018-01-21T04:13:28.284Z,6.60
2018-01-21T04:14:28.297Z,7.40
2018-01-21T04:15:28.273Z,7.20
2018-01-21T04:16:28.284Z,7.50
2018-01-21T04:17:28.280Z,7.30
2018-01-21T04:18:28.276Z,7.30
2018-01-21T04:19:28.255Z,7.70
2018-01-21T04:20:28.358Z,7.40
2018-01-21T04:21:28.247Z,7.80
2018-01-21T04:22:28.249Z,7.90
2018-01-21T04:23:28.243Z,7.10
2018-01-21T04:24:28.251Z,6.90
2018-01-21T04:25:28.232Z,7.50
2018-01-21T04:26:28.233Z,6.70
2018-01-21T04:27:28.226Z,7.20
2018-01-21T04:28:28.223Z,7.10
2018-01-21T04:29:28.220Z,6.60
2018-01-21T04:30:28.214Z,6.80
2018-01-21T04:31:28.207Z,7.00
2018-01-21T04:32:28.206Z,7.50
2018-01-21T04:33:28.202Z,7.40
2018-01-21T04:34:28.194Z,7.30
2018-01-21T04:35:28.190Z,7.20
2018-01-21T04:36:28.191Z,7.10
2018-01-21T04:37:28.187Z,7.40
2018-01-21T04:38:28.182Z,7.30
2018-01-21T04:39:28.177Z,7.20
2018-01-21T04:40:28.173Z,8.00
2018-01-21T04:41:28.169Z,7.40
2018-01-21T04:42:28.161Z,7.80
2018-01-21T04:43:28.156Z,7.70
2018-01-21T04:44:28.156Z,8.00
2018-01-21T04:45:28.152Z,8.70
2018-01-21T04:46:28.148Z,8.90
2018-01-21T04:47:28.144Z,9.00
2018-01-21T04:48:28.141Z,8.00
2018-01-21T04:49:28.139Z,9.10
2018-01-21T04:50:28.232Z,9.30
2018-01-21T04:51:28.128Z,8.70
2018-01-21T04:52:28.123Z,8.90
2018-01-21T04:53:28.119Z,8.90
2018-01-21T04:54:28.115Z,8.30
2018-01-21T04:55:28.110Z,9.10
2018-01-21T04:56:28.122Z,9.00
2018-01-21T04:57:28.102Z,7.90
2018-01-21T04:58:28.115Z,8.10
2018-01-21T04:59:28.110Z,8.40
2018-01-21T05:00:28.089Z,7.80
2018-01-21T05:01:28.104Z,8.10
2018-01-21T05:02:28.097Z,8.40
2018-01-21T05:03:28.078Z,8.00
2018-01-21T05:04:28.088Z,8.10
2018-01-21T05:05:28.068Z,9.70
2018-01-21T05:06:28.081Z,7.90
2018-01-21T05:07:28.076Z,7.80
2018-01-21T05:08:28.052Z,7.30
2018-01-21T05:09:28.064Z,8.10
2018-01-21T05:10:28.043Z,7.90
2018-01-21T05:11:28.054Z,7.80
2018-01-21T05:12:28.035Z,8.60
2018-01-21T05:13:28.051Z,9.00
2018-01-21T05:14:28.047Z,9.00
2018-01-21T05:15:28.025Z,9.50
2018-01-21T05:16:28.033Z,10.20
2018-01-21T05:17:28.017Z,10.70
2018-01-21T05:18:28.012Z,10.60
2018-01-21T05:19:28.024Z,10.70
2018-01-21T05:20:28.115Z,10.90
2018-01-21T05:21:28.015Z,10.20
2018-01-21T05:22:28.007Z,10.40
2018-01-21T05:23:28.006Z,12.00
2018-01-21T05:24:27.997Z,11.80
2018-01-21T05:25:27.997Z,13.10
2018-01-21T05:26:27.972Z,15.80
2018-01-21T05:27:27.983Z,17.50
2018-01-21T05:28:27.964Z,18.40
2018-01-21T05:29:27.975Z,19.60
2018-01-21T05:30:27.970Z,20.50
2018-01-21T05:31:27.967Z,21.40
2018-01-21T05:32:27.960Z,21.40
2018-01-21T05:33:27.956Z,21.00
2018-01-21T05:34:27.954Z,21.40
2018-01-21T05:35:27.950Z,20.50
2018-01-21T05:36:27.941Z,19.70
2018-01-21T05:37:27.941Z,20.20
2018-01-21T05:38:28.035Z,20.80
2018-01-21T05:39:27.933Z,21.10
2018-01-21T05:40:27.923Z,21.70
2018-01-21T05:41:27.919Z,21.70
2018-01-21T05:42:27.914Z,23.00
2018-01-21T05:43:27.907Z,22.20
2018-01-21T05:44:27.902Z,22.50
2018-01-21T05:45:27.899Z,21.20
2018-01-21T05:46:27.894Z,21.40
2018-01-21T05:47:27.889Z,21.50
2018-01-21T05:48:27.867Z,20.80
2018-01-21T05:49:27.879Z,21.30
2018-01-21T05:50:27.874Z,21.50
2018-01-21T05:51:27.854Z,22.30
2018-01-21T05:52:27.846Z,21.40
2018-01-21T05:53:27.842Z,21.90
2018-01-21T05:54:27.839Z,22.10
2018-01-21T05:55:27.852Z,24.30
2018-01-21T05:56:27.926Z,24.10
2018-01-21T05:57:27.821Z,23.20
2018-01-21T05:58:27.833Z,23.30
2018-01-21T05:59:27.814Z,23.30
2018-01-21T06:00:27.822Z,23.00
2018-01-21T06:01:27.799Z,23.60
2018-01-21T06:02:27.812Z,24.00
2018-01-21T06:03:27.810Z,23.20
2018-01-21T06:04:27.790Z,23.60
2018-01-21T06:05:27.800Z,22.10
2018-01-21T06:06:27.772Z,24.00
2018-01-21T06:07:27.766Z,23.10
2018-01-21T06:08:27.762Z,22.40
2018-01-21T06:09:27.775Z,23.40
2018-01-21T06:10:27.756Z,21.60
2018-01-21T06:11:27.750Z,22.00
2018-01-21T06:12:27.763Z,22.50
2018-01-21T06:13:27.754Z,21.50
2018-01-21T06:14:27.834Z,22.30
2018-01-21T06:15:27.723Z,22.90
2018-01-21T06:16:27.737Z,22.20
2018-01-21T06:17:27.732Z,22.50
2018-01-21T06:18:27.722Z,23.00
2018-01-21T06:19:27.702Z,23.10
2018-01-21T06:20:27.713Z,22.30
2018-01-21T06:21:27.687Z,22.50
2018-01-21T06:22:27.700Z,21.50
2018-01-21T06:23:27.686Z,20.90
2018-01-21T06:24:27.698Z,21.50
2018-01-21T06:25:27.667Z,20.80
2018-01-21T06:26:27.791Z,20.10
2018-01-21T06:27:27.675Z,20.10
2018-01-21T06:28:27.668Z,20.50
2018-01-21T06:29:27.655Z,21.70
2018-01-21T06:30:27.640Z,20.40
2018-01-21T06:31:27.651Z,20.00
2018-01-21T06:32:27.747Z,21.20
2018-01-21T06:33:27.646Z,21.00
2018-01-21T06:34:27.646Z,21.70
2018-01-21T06:35:27.617Z,21.20
2018-01-21T06:36:27.607Z,21.00
2018-01-21T06:37:27.620Z,19.70
2018-01-21T06:38:27.615Z,20.00
2018-01-21T06:39:27.609Z,20.80
2018-01-21T06:40:27.604Z,20.60
2018-01-21T06:41:27.585Z,21.50
2018-01-21T06:42:27.585Z,19.30
2018-01-21T06:43:27.588Z,20.80
2018-01-21T06:44:27.583Z,22.20
2018-01-21T06:45:27.560Z,21.90
2018-01-21T06:46:27.582Z,20.20
2018-01-21T06:47:27.548Z,19.80
2018-01-21T06:48:27.562Z,20.50
2018-01-21T06:49:27.548Z,19.50
2018-01-21T06:50:27.552Z,19.40
2018-01-21T06:51:27.533Z,19.20
2018-01-21T06:52:27.541Z,19.20
2018-01-21T06:53:27.524Z,19.20
2018-01-21T06:54:27.514Z,19.30
2018-01-21T06:55:27.506Z,19.30
2018-01-21T06:56:27.506Z,22.10
2018-01-21T06:57:27.497Z,21.30
2018-01-21T06:58:27.510Z,20.50
2018-01-21T06:59:27.486Z,19.40
2018-01-21T07:00:27.499Z,20.50
2018-01-21T07:01:27.494Z,20.30
2018-01-21T07:02:27.589Z,20.40
2018-01-21T07:03:27.483Z,20.30
2018-01-21T07:04:27.488Z,20.60
2018-01-21T07:05:27.478Z,21.90
2018-01-21T07:06:27.460Z,20.60
2018-01-21T07:07:27.462Z,21.50
2018-01-21T07:08:27.457Z,22.60
2018-01-21T07:09:27.433Z,21.30
2018-01-21T07:10:27.434Z,20.60
2018-01-21T07:11:27.428Z,21.60
2018-01-21T07:12:27.436Z,20.80
2018-01-21T07:13:27.441Z,21.10
2018-01-21T07:14:27.417Z,21.20
2018-01-21T07:15:27.410Z,20.60
2018-01-21T07:16:27.406Z,21.30
2018-01-21T07:17:27.398Z,21.00
2018-01-21T07:18:27.415Z,20.80
2018-01-21T07:19:27.404Z,22.40
2018-01-21T07:20:27.500Z,22.40
2018-01-21T07:21:27.398Z,22.80
2018-01-21T07:22:27.376Z,21.20
2018-01-21T07:23:27.388Z,22.50
2018-01-21T07:24:27.364Z,22.30
2018-01-21T07:25:27.361Z,21.80
2018-01-21T07:26:27.351Z,21.90
2018-01-21T07:27:27.363Z,21.00
2018-01-21T07:28:27.388Z,22.00
2018-01-21T07:29:27.335Z,21.60
2018-01-21T07:30:27.352Z,21.10
2018-01-21T07:31:27.329Z,20.30
2018-01-21T07:32:27.319Z,20.20
2018-01-21T07:33:27.319Z,21.40
2018-01-21T07:34:27.332Z,19.80
2018-01-21T07:35:27.306Z,20.40
2018-01-21T07:36:27.321Z,21.00
2018-01-21T07:37:27.311Z,19.80
2018-01-21T07:38:27.293Z,20.40
2018-01-21T07:39:27.286Z,19.90
2018-01-21T07:40:27.281Z,19.60
2018-01-21T07:41:27.295Z,18.90
2018-01-21T07:42:27.290Z,19.60
2018-01-21T07:43:27.284Z,19.00
2018-01-21T07:44:27.357Z,18.20
2018-01-21T07:45:27.275Z,19.00
2018-01-21T07:46:27.267Z,18.30
2018-01-21T07:47:27.261Z,18.70
2018-01-21T07:48:27.255Z,18.70
2018-01-21T07:49:27.251Z,17.20
2018-01-21T07:50:27.246Z,18.00
2018-01-21T07:51:27.241Z,17.40
2018-01-21T07:52:27.240Z,17.10
2018-01-21T07:53:27.237Z,16.40
2018-01-21T07:54:27.226Z,18.60
2018-01-21T07:55:27.220Z,18.50
2018-01-21T07:56:27.215Z,16.80
2018-01-21T07:57:27.211Z,15.40
2018-01-21T07:58:27.211Z,15.70
2018-01-21T07:59:27.200Z,14.40
2018-01-21T08:00:27.196Z,16.30
2018-01-21T08:01:27.191Z,14.40
2018-01-21T08:02:27.287Z,13.50
2018-01-21T08:03:27.181Z,13.70
2018-01-21T08:04:27.177Z,14.90
2018-01-21T08:05:27.172Z,12.80
2018-01-21T08:06:27.194Z,12.80
2018-01-21T08:07:27.166Z,14.50
2018-01-21T08:08:27.161Z,12.00
2018-01-21T08:09:27.152Z,13.50
2018-01-21T08:10:27.148Z,13.30
2018-01-21T08:11:27.146Z,12.80
2018-01-21T08:12:27.138Z,12.30
2018-01-21T08:13:27.137Z,12.80
2018-01-21T08:14:27.131Z,12.30
2018-01-21T08:15:27.123Z,12.00
2018-01-21T08:16:27.118Z,14.20
2018-01-21T08:17:27.113Z,13.10
2018-01-21T08:18:27.113Z,11.70
2018-01-21T08:19:27.107Z,12.90
2018-01-21T08:20:27.098Z,12.40
2018-01-21T08:21:27.098Z,12.80
2018-01-21T08:22:27.093Z,12.70
2018-01-21T08:23:27.084Z,12.70
2018-01-21T08:24:27.079Z,12.60
2018-01-21T08:25:27.078Z,12.50
2018-01-21T08:26:27.169Z,12.50
2018-01-21T08:27:27.063Z,12.70
2018-01-21T08:28:27.085Z,13.70
2018-01-21T08:29:27.054Z,11.90
2018-01-21T08:30:27.053Z,12.30
2018-01-21T08:31:27.043Z,12.40
2018-01-21T08:32:27.043Z,11.80
2018-01-21T08:33:27.038Z,12.30
2018-01-21T08:34:27.029Z,11.80
2018-01-21T08:35:27.019Z,11.60
2018-01-21T08:36:27.019Z,12.80
2018-01-21T08:37:27.019Z,12.20
2018-01-21T08:38:27.004Z,12.40
2018-01-21T08:39:27.004Z,12.20
2018-01-21T08:40:27.001Z,12.10
2018-01-21T08:41:26.995Z,11.60
2018-01-21T08:42:26.985Z,12.20
2018-01-21T08:43:26.979Z,13.30
2018-01-21T08:44:26.984Z,12.20
2018-01-21T08:45:26.975Z,12.70
2018-01-21T08:46:26.971Z,13.40
2018-01-21T08:47:26.964Z,14.20
2018-01-21T08:48:26.959Z,13.70
2018-01-21T08:49:26.955Z,13.60
2018-01-21T08:50:26.950Z,13.10
2018-01-21T08:51:26.944Z,14.00
2018-01-21T08:52:26.937Z,13.30
2018-01-21T08:53:26.937Z,13.80
2018-01-21T08:54:26.930Z,15.30
2018-01-21T08:55:26.924Z,14.90
2018-01-21T08:56:27.017Z,13.70
2018-01-21T08:57:26.916Z,15.30
2018-01-21T08:58:26.916Z,15.30
2018-01-21T08:59:26.902Z,14.70
2018-01-21T09:00:26.903Z,15.10
2018-01-21T09:01:26.904Z,14.00
2018-01-21T09:02:26.889Z,14.20
2018-01-21T09:03:26.887Z,15.40
2018-01-21T09:04:26.876Z,15.00
2018-01-21T09:05:26.866Z,15.50
2018-01-21T09:06:26.871Z,16.10
2018-01-21T09:07:26.867Z,13.90
2018-01-21T09:08:26.852Z,15.40
2018-01-21T09:09:26.848Z,15.10
2018-01-21T09:10:26.843Z,14.80
2018-01-21T09:11:26.842Z,15.20
2018-01-21T09:12:26.839Z,16.20
2018-01-21T09:13:26.837Z,16.40
2018-01-21T09:14:26.920Z,17.30
2018-01-21T09:15:26.816Z,17.80
2018-01-21T09:16:26.811Z,16.60
2018-01-21T09:17:26.804Z,17.10
2018-01-21T09:18:26.804Z,18.00
2018-01-21T09:19:26.802Z,18.00
2018-01-21T09:20:26.894Z,17.40
2018-01-21T09:21:26.785Z,16.70
2018-01-21T09:22:26.781Z,17.20
2018-01-21T09:23:26.779Z,18.20
2018-01-21T09:24:26.767Z,18.40
2018-01-21T09:25:26.767Z,18.60
2018-01-21T09:26:26.759Z,18.20
2018-01-21T09:27:26.753Z,17.10
2018-01-21T09:28:26.753Z,18.20
2018-01-21T09:29:26.748Z,18.10
2018-01-21T09:30:26.747Z,17.40
2018-01-21T09:31:26.737Z,16.10
2018-01-21T09:32:26.714Z,15.90
2018-01-21T09:33:26.727Z,14.80
2018-01-21T09:34:26.709Z,15.10
2018-01-21T09:35:26.711Z,15.20
2018-01-21T09:36:26.692Z,13.80
2018-01-21T09:37:26.682Z,16.00
2018-01-21T09:38:26.705Z,14.60
2018-01-21T09:39:26.671Z,13.30
2018-01-21T09:40:26.685Z,14.40
2018-01-21T09:41:26.661Z,13.90
2018-01-21T09:42:26.656Z,14.80
2018-01-21T09:43:26.709Z,14.00
2018-01-21T09:44:26.667Z,14.40
2018-01-21T09:45:26.641Z,14.80
2018-01-21T09:46:26.655Z,15.50
2018-01-21T09:47:26.631Z,15.00
2018-01-21T09:48:26.641Z,14.30
2018-01-21T09:49:26.645Z,14.40
2018-01-21T09:50:26.745Z,15.40
2018-01-21T09:51:26.630Z,15.40
2018-01-21T09:52:26.625Z,15.50
2018-01-21T09:53:26.608Z,15.50
2018-01-21T09:54:26.616Z,16.10
2018-01-21T09:55:26.592Z,15.70
2018-01-21T09:56:26.587Z,16.70
2018-01-21T09:57:26.613Z,15.70
2018-01-21T09:58:26.596Z,15.60
2018-01-21T09:59:26.577Z,16.30
2018-01-21T10:00:26.567Z,16.70
2018-01-21T10:01:26.562Z,16.20
2018-01-21T10:02:26.575Z,16.50
2018-01-21T10:03:26.568Z,16.70
2018-01-21T10:04:26.547Z,15.80
2018-01-21T10:05:26.559Z,15.60
2018-01-21T10:06:26.556Z,15.90
2018-01-21T10:07:26.558Z,15.90
2018-01-21T10:08:26.553Z,17.30
2018-01-21T10:09:26.539Z,17.50
2018-01-21T10:10:26.544Z,18.20
2018-01-21T10:11:26.538Z,17.30
2018-01-21T10:12:26.534Z,17.20
2018-01-21T10:13:26.520Z,17.60
2018-01-21T10:14:26.516Z,16.70
2018-01-21T10:15:26.519Z,16.80
2018-01-21T10:16:26.514Z,16.10
2018-01-21T10:17:26.509Z,15.10
2018-01-21T10:18:26.505Z,13.80
2018-01-21T10:19:26.499Z,16.30
2018-01-21T10:20:26.596Z,16.30
2018-01-21T10:21:26.490Z,15.90
2018-01-21T10:22:26.486Z,17.50
2018-01-21T10:23:26.481Z,18.50
2018-01-21T10:24:26.501Z,17.10
2018-01-21T10:25:26.472Z,19.70
2018-01-21T10:26:26.507Z,20.20
2018-01-21T10:27:26.453Z,19.80
2018-01-21T10:28:26.458Z,17.90
2018-01-21T10:29:26.454Z,18.70
2018-01-21T10:30:26.449Z,18.20
2018-01-21T10:31:26.435Z,17.30
2018-01-21T10:32:26.431Z,19.20
2018-01-21T10:33:26.437Z,20.10
2018-01-21T10:34:26.423Z,19.10
2018-01-21T10:35:26.427Z,18.60
2018-01-21T10:36:26.407Z,17.30
2018-01-21T10:37:26.393Z,18.90
2018-01-21T10:38:26.415Z,19.40
2018-01-21T10:39:26.394Z,22.40
2018-01-21T10:40:26.408Z,19.90
2018-01-21T10:41:26.404Z,20.40
2018-01-21T10:42:26.391Z,19.30
2018-01-21T10:43:26.400Z,21.90
2018-01-21T10:44:26.373Z,23.90
2018-01-21T10:45:26.386Z,24.20
2018-01-21T10:46:26.356Z,25.60
2018-01-21T10:47:26.379Z,25.50
2018-01-21T10:48:26.375Z,26.30
2018-01-21T10:49:26.343Z,24.90
2018-01-21T10:50:26.348Z,24.70
2018-01-21T10:51:26.358Z,26.60
2018-01-21T10:52:26.354Z,27.90
2018-01-21T10:53:26.350Z,27.00
2018-01-21T10:54:26.330Z,26.90
2018-01-21T10:55:26.322Z,26.70
2018-01-21T10:56:26.442Z,28.00
2018-01-21T10:57:26.338Z,26.20
2018-01-21T10:58:26.325Z,26.00
2018-01-21T10:59:26.323Z,24.70
2018-01-21T11:00:26.322Z,26.60
2018-01-21T11:01:26.322Z,26.10
2018-01-21T11:02:26.309Z,25.00
2018-01-21T11:03:26.309Z,22.70
2018-01-21T11:04:26.301Z,25.30
2018-01-21T11:05:26.307Z,26.50
2018-01-21T11:06:26.303Z,26.60
2018-01-21T11:07:26.277Z,27.40
2018-01-21T11:08:26.288Z,25.60
2018-01-21T11:09:26.288Z,29.50
2018-01-21T11:10:26.287Z,28.70
2018-01-21T11:11:26.280Z,29.20
2018-01-21T11:12:26.277Z,29.40
2018-01-21T11:13:26.273Z,28.50
2018-01-21T11:14:26.272Z,27.30
2018-01-21T11:15:26.261Z,30.80
2018-01-21T11:16:26.261Z,29.70
2018-01-21T11:17:26.257Z,30.10
2018-01-21T11:18:26.258Z,26.50
2018-01-21T11:19:26.249Z,30.40
2018-01-21T11:20:26.241Z,31.70
2018-01-21T11:21:26.242Z,31.10
2018-01-21T11:22:26.240Z,29.90
2018-01-21T11:23:26.234Z,27.50
2018-01-21T11:24:26.230Z,25.10
2018-01-21T11:25:26.229Z,30.70
2018-01-21T11:26:26.225Z,32.20
2018-01-21T11:27:26.221Z,28.30
2018-01-21T11:28:26.213Z,28.20
2018-01-21T11:29:26.214Z,29.60
2018-01-21T11:30:26.208Z,32.80
2018-01-21T11:31:26.203Z,31.20
2018-01-21T11:32:26.196Z,28.70
2018-01-21T11:33:26.197Z,28.50
2018-01-21T11:34:26.189Z,29.00
2018-01-21T11:35:26.184Z,26.10
2018-01-21T11:36:26.184Z,25.80
2018-01-21T11:37:26.184Z,25.70
2018-01-21T11:38:26.281Z,27.80
2018-01-21T11:39:26.175Z,27.30
2018-01-21T11:40:26.170Z,27.60
2018-01-21T11:41:26.161Z,30.30
2018-01-21T11:42:26.167Z,31.00
2018-01-21T11:43:26.156Z,31.00
2018-01-21T11:44:26.153Z,31.90
2018-01-21T11:45:26.150Z,29.40
2018-01-21T11:46:26.148Z,29.80
2018-01-21T11:47:26.139Z,27.40
2018-01-21T11:48:26.136Z,25.50
2018-01-21T11:49:26.137Z,23.90
2018-01-21T11:50:26.119Z,23.30
2018-01-21T11:51:26.132Z,22.40
2018-01-21T11:52:26.111Z,22.40
2018-01-21T11:53:26.114Z,20.80
2018-01-21T11:54:26.104Z,21.50
2018-01-21T11:55:26.096Z,21.80
2018-01-21T11:56:26.115Z,19.20
2018-01-21T11:57:26.108Z,20.40
2018-01-21T11:58:26.105Z,20.50
2018-01-21T11:59:26.074Z,20.30
2018-01-21T12:00:26.082Z,19.90
2018-01-21T12:01:26.076Z,20.60
2018-01-21T12:02:26.132Z,17.90
2018-01-21T12:03:26.068Z,18.70
2018-01-21T12:04:26.062Z,19.70
2018-01-21T12:05:26.074Z,19.20
2018-01-21T12:06:26.074Z,20.70
2018-01-21T12:07:26.053Z,20.90
2018-01-21T12:08:26.050Z,20.60
2018-01-21T12:09:26.046Z,20.10
2018-01-21T12:10:26.060Z,20.70
2018-01-21T12:11:26.055Z,18.10
2018-01-21T12:12:26.037Z,19.10
2018-01-21T12:13:26.049Z,20.30
2018-01-21T12:14:26.046Z,20.90
2018-01-21T12:15:26.042Z,20.60
2018-01-21T12:16:26.041Z,18.70
2018-01-21T12:17:26.039Z,18.80
2018-01-21T12:18:26.018Z,20.00
2018-01-21T12:19:26.031Z,18.20
2018-01-21T12:20:26.030Z,18.40
2018-01-21T12:21:26.027Z,17.10
2018-01-21T12:22:26.007Z,16.80
2018-01-21T12:23:26.004Z,17.40
2018-01-21T12:24:26.019Z,16.90
2018-01-21T12:25:26.008Z,17.70
2018-01-21T12:26:26.015Z,18.90
2018-01-21T12:27:26.012Z,19.00
2018-01-21T12:28:26.005Z,18.50
2018-01-21T12:29:26.008Z,19.40
2018-01-21T12:30:26.007Z,18.50
2018-01-21T12:31:25.995Z,17.90
2018-01-21T12:32:25.992Z,18.50
2018-01-21T12:33:26.000Z,18.20
2018-01-21T12:34:26.000Z,18.70
2018-01-21T12:35:25.996Z,19.20
2018-01-21T12:36:25.989Z,18.50
2018-01-21T12:37:25.988Z,19.40
2018-01-21T12:38:25.987Z,20.30
2018-01-21T12:39:25.985Z,19.50
2018-01-21T12:40:25.983Z,20.50
2018-01-21T12:41:25.986Z,20.10
2018-01-21T12:42:25.976Z,21.20
2018-01-21T12:43:25.978Z,20.60
2018-01-21T12:44:25.977Z,19.60
2018-01-21T12:45:25.970Z,20.20
2018-01-21T12:46:25.974Z,22.80
2018-01-21T12:47:25.966Z,22.80
2018-01-21T12:48:25.971Z,22.20
2018-01-21T12:49:25.970Z,20.70
2018-01-21T12:50:25.968Z,22.10
2018-01-21T12:51:25.961Z,20.00
2018-01-21T12:52:25.967Z,19.90
2018-01-21T12:53:25.964Z,19.00
2018-01-21T12:54:25.964Z,18.20
2018-01-21T12:55:25.957Z,19.70
2018-01-21T12:56:25.957Z,18.40
2018-01-21T12:57:25.961Z,17.10
2018-01-21T12:58:25.961Z,18.70
2018-01-21T12:59:25.959Z,17.10
2018-01-21T13:00:25.959Z,18.90
2018-01-21T13:01:25.958Z,17.60